EWG86R EDDS-LIMC
Flight info
| Callsign | EWG86R |
|---|---|
| Flight time | 0h 41m |
| Altitude | 23000 |
| Route | ROTWE7H ROTWE Y126 TUBLO N850 NATOR DCT TRA DCT BASGO Z424 RIXUV |
| Aircraft | A320/M-SDE3FGHIRWY/LB1 |
Departure
| Time | 2026-04-30 19:03 |
|---|---|
| Airport | Stuttgart Airport (EDDS) |
Arrival
| Time | 2026-04-30 19:44 |
|---|---|
| Airport | Milan Malpensa International Airport (LIMC) |
| Time | Latitude | Longitude | Altitude | Speed | Heading |
|---|---|---|---|---|---|
| 2026-04-30 18:19 | 48.68870 | 9.19288 | 1316 ft | 0 kts | 344° |
| 2026-04-30 18:55 | 48.68850 | 9.19297 | 1315 ft | 4 kts | 344° |
| 2026-04-30 18:55 | 48.68828 | 9.19306 | 1315 ft | 2 kts | 344° |
| 2026-04-30 18:56 | 48.68788 | 9.19283 | 1315 ft | 3 kts | 72° |
| 2026-04-30 18:56 | 48.68787 | 9.19277 | 1315 ft | 0 kts | 74° |
| 2026-04-30 18:58 | 48.68790 | 9.19292 | 1315 ft | 3 kts | 74° |
| 2026-04-30 18:58 | 48.68798 | 9.19336 | 1295 ft | 6 kts | 74° |
| 2026-04-30 18:59 | 48.68837 | 9.19545 | 1310 ft | 15 kts | 73° |
| 2026-04-30 19:00 | 48.68879 | 9.19863 | 1302 ft | 13 kts | 127° |
| 2026-04-30 19:00 | 48.68803 | 9.19927 | 1296 ft | 9 kts | 152° |
| 2026-04-30 19:00 | 48.68690 | 9.19982 | 1289 ft | 7 kts | 165° |
| 2026-04-30 19:01 | 48.68589 | 9.20035 | 1285 ft | 6 kts | 128° |
| 2026-04-30 19:01 | 48.68591 | 9.20108 | 1285 ft | 0 kts | 74° |
| 2026-04-30 19:02 | 48.68773 | 9.21064 | 1262 ft | 117 kts | 74° |
| 2026-04-30 19:03 | 48.69349 | 9.24123 | 2248 ft | 157 kts | 75° |
| 2026-04-30 19:03 | 48.69998 | 9.27602 | 3266 ft | 191 kts | 76° |
| 2026-04-30 19:04 | 48.70816 | 9.31805 | 4616 ft | 219 kts | 76° |
| 2026-04-30 19:04 | 48.70984 | 9.36373 | 6391 ft | 229 kts | 117° |
| 2026-04-30 19:05 | 48.68505 | 9.39406 | 8033 ft | 252 kts | 173° |
| 2026-04-30 19:05 | 48.65214 | 9.37242 | 9730 ft | 277 kts | 225° |
| 2026-04-30 19:06 | 48.63274 | 9.31857 | 10755 ft | 318 kts | 251° |
| 2026-04-30 19:06 | 48.62525 | 9.28584 | 11139 ft | 341 kts | 250° |
| 2026-04-30 19:06 | 48.60924 | 9.21312 | 11610 ft | 389 kts | 253° |
| 2026-04-30 19:07 | 48.59456 | 9.13083 | 12233 ft | 420 kts | 254° |
| 2026-04-30 19:07 | 48.58319 | 9.09072 | 12818 ft | 424 kts | 237° |
| 2026-04-30 19:08 | 48.53956 | 9.03217 | 14072 ft | 427 kts | 203° |
| 2026-04-30 19:08 | 48.48413 | 8.99837 | 15163 ft | 434 kts | 199° |
| 2026-04-30 19:08 | 48.45591 | 8.98159 | 15710 ft | 437 kts | 199° |
| 2026-04-30 19:09 | 48.39898 | 8.94669 | 16784 ft | 446 kts | 202° |
| 2026-04-30 19:09 | 48.37069 | 8.92693 | 17294 ft | 450 kts | 204° |
| 2026-04-30 19:09 | 48.34251 | 8.90598 | 17810 ft | 454 kts | 205° |
| 2026-04-30 19:10 | 48.28559 | 8.86255 | 18764 ft | 462 kts | 205° |
| 2026-04-30 19:10 | 48.22754 | 8.81935 | 19610 ft | 469 kts | 204° |
| 2026-04-30 19:11 | 48.19807 | 8.79799 | 20034 ft | 471 kts | 204° |
| 2026-04-30 19:11 | 48.13852 | 8.75531 | 20832 ft | 477 kts | 204° |
| 2026-04-30 19:11 | 48.10891 | 8.73407 | 21211 ft | 480 kts | 204° |
| 2026-04-30 19:12 | 48.07875 | 8.71241 | 21596 ft | 483 kts | 204° |
| 2026-04-30 19:12 | 48.04843 | 8.69062 | 21962 ft | 485 kts | 204° |
| 2026-04-30 19:12 | 48.01786 | 8.66868 | 22321 ft | 488 kts | 204° |
| 2026-04-30 19:13 | 47.95621 | 8.62485 | 23012 ft | 493 kts | 204° |
| 2026-04-30 19:13 | 47.89410 | 8.58098 | 23302 ft | 495 kts | 204° |
| 2026-04-30 19:13 | 47.86314 | 8.55913 | 23301 ft | 494 kts | 204° |
| 2026-04-30 19:14 | 47.83204 | 8.53718 | 23304 ft | 494 kts | 204° |
| 2026-04-30 19:14 | 47.80100 | 8.51533 | 23293 ft | 494 kts | 204° |
| 2026-04-30 19:14 | 47.76989 | 8.49341 | 23294 ft | 494 kts | 204° |
| 2026-04-30 19:14 | 47.73887 | 8.47160 | 23283 ft | 494 kts | 204° |
| 2026-04-30 19:15 | 47.70780 | 8.45135 | 23283 ft | 492 kts | 197° |
| 2026-04-30 19:15 | 47.64214 | 8.43821 | 23278 ft | 487 kts | 177° |
| 2026-04-30 19:15 | 47.60825 | 8.43889 | 23279 ft | 487 kts | 176° |
| 2026-04-30 19:16 | 47.57440 | 8.43969 | 23279 ft | 487 kts | 176° |
| 2026-04-30 19:16 | 47.54048 | 8.44057 | 23281 ft | 487 kts | 176° |
| 2026-04-30 19:16 | 47.47387 | 8.44249 | 23285 ft | 487 kts | 176° |
| 2026-04-30 19:17 | 47.43999 | 8.44339 | 23283 ft | 487 kts | 176° |
| 2026-04-30 19:17 | 47.37299 | 8.44505 | 23283 ft | 487 kts | 176° |
| 2026-04-30 19:17 | 47.34070 | 8.44588 | 23286 ft | 486 kts | 176° |
| 2026-04-30 19:18 | 47.28446 | 8.44732 | 23270 ft | 486 kts | 176° |
| 2026-04-30 19:18 | 47.23928 | 8.44847 | 23269 ft | 486 kts | 177° |
| 2026-04-30 19:18 | 47.20788 | 8.44928 | 23266 ft | 485 kts | 177° |
| 2026-04-30 19:19 | 47.17573 | 8.45008 | 23261 ft | 485 kts | 177° |
| 2026-04-30 19:19 | 47.14217 | 8.45088 | 23256 ft | 485 kts | 177° |
| 2026-04-30 19:19 | 47.07477 | 8.45245 | 23237 ft | 484 kts | 177° |
| 2026-04-30 19:20 | 47.04108 | 8.45333 | 23233 ft | 484 kts | 177° |
| 2026-04-30 19:20 | 47.00777 | 8.45417 | 23224 ft | 484 kts | 177° |
| 2026-04-30 19:20 | 46.94214 | 8.45578 | 23217 ft | 485 kts | 177° |
| 2026-04-30 19:21 | 46.90838 | 8.45662 | 23217 ft | 485 kts | 177° |
| 2026-04-30 19:21 | 46.84128 | 8.45836 | 23218 ft | 485 kts | 177° |
| 2026-04-30 19:22 | 46.77373 | 8.46001 | 23219 ft | 485 kts | 177° |
| 2026-04-30 19:22 | 46.67236 | 8.46234 | 23233 ft | 486 kts | 177° |
| 2026-04-30 19:23 | 46.57097 | 8.46489 | 23237 ft | 486 kts | 177° |
| 2026-04-30 19:24 | 46.50328 | 8.46666 | 23239 ft | 486 kts | 177° |
| 2026-04-30 19:24 | 46.46945 | 8.46748 | 23245 ft | 486 kts | 177° |
| 2026-04-30 19:24 | 46.40213 | 8.46903 | 23254 ft | 487 kts | 177° |
| 2026-04-30 19:25 | 46.30026 | 8.47158 | 23053 ft | 490 kts | 177° |
| 2026-04-30 19:26 | 46.23261 | 8.47538 | 22500 ft | 485 kts | 173° |
| 2026-04-30 19:26 | 46.16594 | 8.48527 | 21452 ft | 478 kts | 171° |
| 2026-04-30 19:26 | 46.13309 | 8.49105 | 20880 ft | 474 kts | 171° |
| 2026-04-30 19:27 | 46.07096 | 8.51680 | 19770 ft | 461 kts | 156° |
| 2026-04-30 19:27 | 46.01123 | 8.54906 | 18671 ft | 456 kts | 158° |
| 2026-04-30 19:28 | 45.98157 | 8.56482 | 18087 ft | 452 kts | 158° |
| 2026-04-30 19:28 | 45.92311 | 8.59589 | 17024 ft | 445 kts | 158° |
| 2026-04-30 19:29 | 45.87119 | 8.63976 | 15995 ft | 433 kts | 139° |
| 2026-04-30 19:29 | 45.84779 | 8.66683 | 15493 ft | 430 kts | 139° |
| 2026-04-30 19:30 | 45.78636 | 8.73843 | 14142 ft | 424 kts | 139° |
| 2026-04-30 19:30 | 45.73767 | 8.78479 | 13080 ft | 419 kts | 150° |
| 2026-04-30 19:31 | 45.68681 | 8.82391 | 12284 ft | 412 kts | 150° |
| 2026-04-30 19:31 | 45.66154 | 8.84321 | 12173 ft | 412 kts | 150° |
| 2026-04-30 19:31 | 45.61198 | 8.87769 | 11712 ft | 373 kts | 163° |
| 2026-04-30 19:32 | 45.58866 | 8.88465 | 11518 ft | 344 kts | 168° |
| 2026-04-30 19:32 | 45.56612 | 8.89070 | 11391 ft | 317 kts | 168° |
| 2026-04-30 19:32 | 45.54521 | 8.89636 | 11255 ft | 295 kts | 167° |
| 2026-04-30 19:32 | 45.52546 | 8.90174 | 10860 ft | 285 kts | 167° |
| 2026-04-30 19:33 | 45.50613 | 8.90703 | 10328 ft | 280 kts | 167° |
| 2026-04-30 19:33 | 45.48720 | 8.91219 | 9932 ft | 271 kts | 167° |
| 2026-04-30 19:33 | 45.46935 | 8.91704 | 9473 ft | 265 kts | 167° |
| 2026-04-30 19:33 | 45.45138 | 8.92197 | 8936 ft | 261 kts | 167° |
| 2026-04-30 19:34 | 45.43363 | 8.92684 | 8400 ft | 258 kts | 168° |
| 2026-04-30 19:34 | 45.41635 | 8.93156 | 7881 ft | 255 kts | 168° |
| 2026-04-30 19:34 | 45.38192 | 8.94089 | 6983 ft | 252 kts | 168° |
| 2026-04-30 19:35 | 45.36456 | 8.94562 | 6662 ft | 250 kts | 168° |
| 2026-04-30 19:35 | 45.34780 | 8.95017 | 6329 ft | 247 kts | 168° |
| 2026-04-30 19:35 | 45.33092 | 8.95258 | 6124 ft | 241 kts | 185° |
| 2026-04-30 19:35 | 45.31527 | 8.94595 | 5992 ft | 235 kts | 210° |
| 2026-04-30 19:36 | 45.30323 | 8.93064 | 5864 ft | 233 kts | 236° |
| 2026-04-30 19:36 | 45.29707 | 8.90994 | 5733 ft | 232 kts | 262° |
| 2026-04-30 19:36 | 45.30448 | 8.86764 | 5481 ft | 224 kts | 310° |
| 2026-04-30 19:37 | 45.31611 | 8.85324 | 5357 ft | 221 kts | 326° |
| 2026-04-30 19:37 | 45.32848 | 8.84097 | 5233 ft | 213 kts | 326° |
| 2026-04-30 19:37 | 45.34054 | 8.82893 | 5104 ft | 210 kts | 326° |
| 2026-04-30 19:37 | 45.35250 | 8.81697 | 4968 ft | 209 kts | 326° |
| 2026-04-30 19:38 | 45.36500 | 8.80682 | 4848 ft | 207 kts | 344° |
| 2026-04-30 19:38 | 45.37909 | 8.80235 | 4724 ft | 207 kts | 350° |
| 2026-04-30 19:38 | 45.39327 | 8.79859 | 4593 ft | 207 kts | 350° |
| 2026-04-30 19:38 | 45.40708 | 8.79486 | 4467 ft | 204 kts | 350° |
| 2026-04-30 19:39 | 45.42102 | 8.79105 | 4338 ft | 201 kts | 350° |
| 2026-04-30 19:39 | 45.43460 | 8.78731 | 4202 ft | 195 kts | 350° |
| 2026-04-30 19:39 | 45.44757 | 8.78368 | 4044 ft | 189 kts | 349° |
| 2026-04-30 19:39 | 45.46050 | 8.78001 | 3833 ft | 192 kts | 350° |
| 2026-04-30 19:40 | 45.47377 | 8.77652 | 3598 ft | 195 kts | 350° |
| 2026-04-30 19:40 | 45.48710 | 8.77293 | 3340 ft | 195 kts | 351° |
| 2026-04-30 19:40 | 45.50054 | 8.76949 | 3064 ft | 197 kts | 351° |
| 2026-04-30 19:40 | 45.51364 | 8.76586 | 2775 ft | 194 kts | 349° |
| 2026-04-30 19:41 | 45.52675 | 8.76203 | 2483 ft | 190 kts | 349° |
| 2026-04-30 19:41 | 45.53933 | 8.75846 | 2239 ft | 177 kts | 350° |
| 2026-04-30 19:41 | 45.55050 | 8.75523 | 2070 ft | 155 kts | 350° |
| 2026-04-30 19:41 | 45.56080 | 8.75257 | 1797 ft | 146 kts | 351° |
| 2026-04-30 19:42 | 45.57046 | 8.74999 | 1642 ft | 140 kts | 351° |
| 2026-04-30 19:42 | 45.58006 | 8.74743 | 1460 ft | 140 kts | 350° |
| 2026-04-30 19:42 | 45.58962 | 8.74484 | 1279 ft | 140 kts | 350° |
| 2026-04-30 19:42 | 45.59913 | 8.74211 | 1096 ft | 139 kts | 349° |
| 2026-04-30 19:43 | 45.60860 | 8.73949 | 913 ft | 137 kts | 350° |
| 2026-04-30 19:43 | 45.61783 | 8.73693 | 755 ft | 133 kts | 349° |
| 2026-04-30 19:43 | 45.62611 | 8.73465 | 741 ft | 107 kts | 349° |
| 2026-04-30 19:44 | 45.63490 | 8.73223 | 741 ft | 43 kts | 349° |
| 2026-04-30 19:44 | 45.63693 | 8.73098 | 741 ft | 26 kts | 328° |
| 2026-04-30 19:44 | 45.63794 | 8.72969 | 741 ft | 11 kts | 308° |
| 2026-04-30 19:44 | 45.63839 | 8.72880 | 741 ft | 11 kts | 305° |
| 2026-04-30 19:45 | 45.63875 | 8.72795 | 741 ft | 9 kts | 303° |
| 2026-04-30 19:45 | 45.63910 | 8.72721 | 741 ft | 8 kts | 304° |
| 2026-04-30 19:45 | 45.63933 | 8.72651 | 741 ft | 7 kts | 275° |
| 2026-04-30 19:45 | 45.63898 | 8.72583 | 741 ft | 13 kts | 196° |
| 2026-04-30 19:46 | 45.63776 | 8.72613 | 741 ft | 20 kts | 168° |
| 2026-04-30 19:46 | 45.63627 | 8.72654 | 741 ft | 23 kts | 169° |
| 2026-04-30 19:46 | 45.63470 | 8.72695 | 741 ft | 19 kts | 172° |
| 2026-04-30 19:46 | 45.63345 | 8.72624 | 740 ft | 21 kts | 215° |
| 2026-04-30 19:47 | 45.63215 | 8.72498 | 740 ft | 24 kts | 214° |
| 2026-04-30 19:47 | 45.63153 | 8.72441 | 741 ft | 12 kts | 212° |
| 2026-04-30 19:47 | 45.63119 | 8.72408 | 741 ft | 4 kts | 216° |
| 2026-04-30 19:47 | 45.63075 | 8.72355 | 741 ft | 15 kts | 224° |
| 2026-04-30 19:48 | 45.63026 | 8.72205 | 741 ft | 18 kts | 262° |
| 2026-04-30 19:48 | 45.63005 | 8.72044 | 741 ft | 15 kts | 258° |
| 2026-04-30 19:48 | 45.62979 | 8.71954 | 740 ft | 8 kts | 213° |
| 2026-04-30 19:48 | 45.62927 | 8.71955 | 739 ft | 9 kts | 169° |
| 2026-04-30 19:49 | 45.62837 | 8.71980 | 741 ft | 10 kts | 169° |
| 2026-04-30 19:49 | 45.62707 | 8.72016 | 741 ft | 12 kts | 169° |
| 2026-04-30 19:49 | 45.62608 | 8.72042 | 741 ft | 17 kts | 169° |
| 2026-04-30 19:50 | 45.62490 | 8.72072 | 740 ft | 17 kts | 170° |
| 2026-04-30 19:50 | 45.62389 | 8.72089 | 741 ft | 9 kts | 191° |
| 2026-04-30 19:50 | 45.62352 | 8.72011 | 741 ft | 11 kts | 257° |
| 2026-04-30 19:50 | 45.62336 | 8.71891 | 740 ft | 14 kts | 259° |
| 2026-04-30 19:51 | 45.62317 | 8.71747 | 741 ft | 14 kts | 260° |
| 2026-04-30 19:51 | 45.62332 | 8.71665 | 740 ft | 6 kts | 340° |
| 2026-04-30 19:51 | 45.62377 | 8.71648 | 741 ft | 4 kts | 348° |
| 2026-04-30 19:51 | 45.62384 | 8.71646 | 741 ft | 0 kts | 349° |